Knickerbocker — WDC7987 — position and weather

sailwx.info

Track history (hours):
 
Tides and Currents Weather Stations Pressure Air Temp Water Temp Dewpoint Dewpoint Depression Visibility Wind Speed Wind Dir Waves Ship Positions

Knickerbocker

Owner: Christopher Corp., Newport, RI. More information available from US FCC via Universal Licensing System and Coast Guard Vessel Documentation Center.

Last reported at 2016-Jun-19 16:09 UTC. Time now 2016-Jun-29 20:11 UTC.
Position N 40°53' W 073°32'.
Warning: this ship's position is 10 days out of date.

Length 36 m; draft 3.6 m.

Type: Sailing vessel. MMSI: 367079960.

Date/timePositionNaut miles runAvg speedWind from/ knotsBaromVisibWave heightAir tempDewpointWater temp
2016-Jun-19 16:09N 40°53' W 073°32'  
2016-Jun-14 12:24N 40°48' W 073°51'5 6.4
2016-Jun-14 11:32N 40°46' W 073°57'4 4.2
2016-Jun-14 10:33N 40°43' W 074°01'0 0.0
2016-Jun-14 09:33N 40°43' W 074°01'0 0.0
2016-Jun-14 08:33N 40°43' W 074°01'0 0.0
2016-Jun-14 07:33N 40°43' W 074°01'0 0.0
2016-Jun-14 05:33N 40°43' W 074°01'0 0.0
2016-Jun-14 04:33N 40°43' W 074°01'0 0.0
2016-Jun-14 03:33N 40°43' W 074°01'0 0.0
2016-Jun-14 02:33N 40°43' W 074°01'0 0.0
2016-Jun-14 01:33N 40°43' W 074°01'4 4.3
2016-Jun-14 00:33N 40°47' W 073°60'4 4.4
2016-Jun-13 23:33N 40°43' W 074°02'1 0.4
2016-Jun-13 22:25N 40°43' W 074°01'0 0.0
2016-Jun-13 21:31N 40°43' W 074°01'0 0.0
2016-Jun-13 20:34N 40°43' W 074°01'0 0.0
2016-Jun-13 19:34N 40°43' W 074°01'0 0.0
2016-Jun-13 18:34N 40°43' W 074°01'2 2.0
2016-Jun-13 17:33N 40°43' W 073°58'  
2016-Jun-09 20:27N 41°04' W 072°37'7 8.2
2016-Jun-09 19:34N 41°07' W 072°29'8 8.3
2016-Jun-09 18:33N 41°12' W 072°20'  
Track history (hours):
 
Tides and Currents Weather Stations Pressure Air Temp Water Temp Dewpoint Dewpoint Depression Visibility Wind Speed Wind Dir Waves Ship Positions

Knickerbocker

Owner: Christopher Corp., Newport, RI. More information available from US FCC via Universal Licensing System and Coast Guard Vessel Documentation Center.

Last reported at 2016-Jun-19 16:09 UTC. Time now 2016-Jun-29 20:11 UTC.
Position N 40°53' W 073°32'.
Warning: this ship's position is 10 days out of date.

Length 36 m; draft 3.6 m.

Type: Sailing vessel. MMSI: 367079960.

Date/timePositionNaut miles runAvg speedWind from/ knotsBaromVisibWave heightAir tempDewpointWater temp
2016-Jun-19 16:09N 40°53' W 073°32'  
2016-Jun-14 12:24N 40°48' W 073°51'5 6.4
2016-Jun-14 11:32N 40°46' W 073°57'4 4.2
2016-Jun-14 10:33N 40°43' W 074°01'0 0.0
2016-Jun-14 09:33N 40°43' W 074°01'0 0.0
2016-Jun-14 08:33N 40°43' W 074°01'0 0.0
2016-Jun-14 07:33N 40°43' W 074°01'0 0.0
2016-Jun-14 05:33N 40°43' W 074°01'0 0.0
2016-Jun-14 04:33N 40°43' W 074°01'0 0.0
2016-Jun-14 03:33N 40°43' W 074°01'0 0.0
2016-Jun-14 02:33N 40°43' W 074°01'0 0.0
2016-Jun-14 01:33N 40°43' W 074°01'4 4.3
2016-Jun-14 00:33N 40°47' W 073°60'4 4.4
2016-Jun-13 23:33N 40°43' W 074°02'1 0.4
2016-Jun-13 22:25N 40°43' W 074°01'0 0.0
2016-Jun-13 21:31N 40°43' W 074°01'0 0.0
2016-Jun-13 20:34N 40°43' W 074°01'0 0.0
2016-Jun-13 19:34N 40°43' W 074°01'0 0.0
2016-Jun-13 18:34N 40°43' W 074°01'2 2.0
2016-Jun-13 17:33N 40°43' W 073°58'  
2016-Jun-09 20:27N 41°04' W 072°37'7 8.2
2016-Jun-09 19:34N 41°07' W 072°29'8 8.3
2016-Jun-09 18:33N 41°12' W 072°20'  

Dump ship's entire track history